Nome, AK

12:03 PM AKDT on April 19, 2015 (GMT -0800)
BA Airport | | Change Station
CLOSE
Current Station
Personal Weather Station
Location: Nome, AK
Elevation: 37 ft
Nearby Weather Stations

Elev 37 ft 64.51 °N, 165.45 °W | Updated 3 minutes ago

Light Rain
Light Rain
34.9 °F
Feels Like 30 °F
N
6.0
Wind Variable Wind from ESE
Gusts 7.0 mph

Today
High -- | Low -- °F
--% Chance of Precip.
Yesterday
High -- | Low -- °F
Precip. -- in
7:13 AM 10:49 PM
New Moon, 2% visible
Pressure 29.17 in
Visibility 10.0 miles
Clouds Overcast 1500 ft
Windchill 30 °F
Dew Point 34 °F
Humidity 95%
Rainfall 0.02 in
Snow Depth Not available.
UV 1 out of 12
Pollen Not available.
Air Quality Not available.
Flu Activity Sporadic
METAR PAOM 191953Z 11009KT 10SM -RA OVC015 01/01 A2916 RMK SLP876 P0000 T00060006 VIA AUTODIAL

More Conditions Fewer Conditions

Pressure 29.17 in
Visibility 10.0 miles
Clouds Overcast 1500 ft
Windchill 30 °F
Dew Point 34 °F
Humidity 95%
Rainfall 0.02 in
Snow Depth Not available.
UV 1 out of 12
Pollen Not available.
Air Quality Not available.
Flu Activity Sporadic
METAR PAOM 191953Z 11009KT 10SM -RA OVC015 01/01 A2916 RMK SLP876 P0000 T00060006 VIA AUTODIAL

More Conditions Fewer Conditions

10-Day Weather Forecast

Almanac

Astronomy

Apr. 19, 2015 Rise Set
Actual Time
Civil Twilight
Nautical Twilight
Astronomical Twilight
Moon
Length of Visible Light
Length of Day
Tomorrow will be .
, % of the Moon is Illuminated

Today's Extremes

State Highs State Lows

Community

WunderPhotos

Upload Photos

1,814,956 photos uploaded!

WunderBlogs® & News

Nearby

Air Quality

  Air Quality AQ Index Pollutant
Not available.

Snow Depth

Station Depth Elevation

Earthquake Activity

City Distance Mag. Time & Date
Minimum magnitude displayed is 2.5.

Coastal Water Temperatures

Place Temperature

Stations

Nearby Weather Stations

Station Location Temp. Windchill Dew Point Humidity Wind Precip. Elev Updated Type